createdAt,value
2022-07-29T00:02:01.404Z,19.60
2022-07-29T00:04:29.372Z,19.60
2022-07-29T00:06:58.605Z,19.70
2022-07-29T00:09:26.505Z,19.70
2022-07-29T00:11:55.170Z,19.60
2022-07-29T00:14:23.067Z,19.60
2022-07-29T00:16:50.992Z,19.60
2022-07-29T00:19:18.951Z,19.60
2022-07-29T00:21:46.839Z,19.60
2022-07-29T00:24:16.387Z,19.60
2022-07-29T00:26:44.518Z,19.60
2022-07-29T00:32:00.580Z,19.60
2022-07-29T00:34:46.280Z,19.70
2022-07-29T00:37:14.185Z,19.70
2022-07-29T00:39:43.392Z,19.80
2022-07-29T00:42:11.664Z,19.80
2022-07-29T00:44:40.202Z,19.80
2022-07-29T00:47:08.743Z,19.60
2022-07-29T00:49:37.557Z,19.70
2022-07-29T00:52:06.612Z,19.70
2022-07-29T00:54:35.421Z,19.60
2022-07-29T00:57:09.546Z,19.60
2022-07-29T00:59:37.478Z,19.60
2022-07-29T01:02:05.611Z,19.60
2022-07-29T01:04:34.258Z,19.60
2022-07-29T01:07:03.741Z,19.60
2022-07-29T01:09:43.158Z,19.60
2022-07-29T01:12:19.389Z,19.50
2022-07-29T01:14:48.384Z,19.50
2022-07-29T01:17:20.922Z,19.40
2022-07-29T01:19:54.823Z,19.40
2022-07-29T01:22:37.269Z,19.40
2022-07-29T01:25:21.647Z,19.30
2022-07-29T01:28:15.300Z,19.30
2022-07-29T01:30:46.385Z,19.30
2022-07-29T01:33:33.281Z,19.40
2022-07-29T01:36:03.513Z,19.40
2022-07-29T01:38:31.624Z,19.50
2022-07-29T01:41:04.912Z,19.50
2022-07-29T01:43:39.632Z,19.50
2022-07-29T01:46:13.871Z,19.50
2022-07-29T01:48:47.725Z,19.40
2022-07-29T01:51:21.082Z,19.40
2022-07-29T01:53:56.254Z,19.40
2022-07-29T01:56:26.194Z,19.40
2022-07-29T01:58:56.216Z,19.40
2022-07-29T02:01:28.556Z,19.30
2022-07-29T02:03:59.148Z,19.30
2022-07-29T02:06:28.295Z,19.30
2022-07-29T02:08:57.677Z,19.20
2022-07-29T02:11:25.969Z,19.20
2022-07-29T02:13:57.831Z,19.20
2022-07-29T02:16:30.704Z,19.20
2022-07-29T02:19:02.768Z,19.20
2022-07-29T02:21:32.606Z,19.10
2022-07-29T02:24:03.155Z,19.20
2022-07-29T02:26:32.409Z,19.20
2022-07-29T02:29:02.085Z,19.20
2022-07-29T02:31:35.653Z,19.10
2022-07-29T02:34:05.460Z,19.00
2022-07-29T02:36:34.669Z,18.90
2022-07-29T02:39:03.986Z,18.80
2022-07-29T02:41:37.234Z,18.80
2022-07-29T02:44:08.370Z,18.80
2022-07-29T02:46:39.959Z,18.80
2022-07-29T02:49:15.223Z,18.80
2022-07-29T02:51:46.971Z,19.00
2022-07-29T02:54:33.089Z,19.00
2022-07-29T02:57:05.864Z,19.10
2022-07-29T02:59:36.954Z,19.00
2022-07-29T03:02:07.838Z,18.90
2022-07-29T03:04:37.389Z,18.90
2022-07-29T03:07:07.073Z,18.80
2022-07-29T03:09:35.949Z,18.90
2022-07-29T03:12:05.670Z,18.90
2022-07-29T03:14:34.391Z,18.90
2022-07-29T03:17:02.742Z,18.80
2022-07-29T03:19:32.998Z,18.70
2022-07-29T03:22:01.608Z,18.60
2022-07-29T03:24:34.271Z,18.50
2022-07-29T03:27:02.746Z,18.30
2022-07-29T03:29:31.517Z,18.30
2022-07-29T03:32:03.566Z,18.10
2022-07-29T03:34:33.694Z,18.10
2022-07-29T03:37:01.685Z,18.10
2022-07-29T03:39:35.152Z,18.10
2022-07-29T03:42:04.181Z,18.00
2022-07-29T03:44:34.164Z,18.00
2022-07-29T03:47:04.876Z,18.10
2022-07-29T03:49:37.400Z,18.10
2022-07-29T03:52:06.389Z,17.90
2022-07-29T03:54:34.442Z,17.70
2022-07-29T03:57:03.883Z,17.70
2022-07-29T03:59:34.722Z,17.60
2022-07-29T04:02:04.687Z,17.60
2022-07-29T04:04:36.228Z,17.50
2022-07-29T04:07:04.958Z,17.60
2022-07-29T04:09:33.032Z,17.60
2022-07-29T04:12:02.919Z,17.60
2022-07-29T04:14:34.293Z,17.80
2022-07-29T04:17:02.593Z,17.80
2022-07-29T04:19:30.786Z,17.80
2022-07-29T04:22:00.497Z,17.80
2022-07-29T04:24:28.736Z,17.90
2022-07-29T04:26:56.778Z,18.00
2022-07-29T04:29:24.660Z,18.10
2022-07-29T04:31:52.598Z,18.20
2022-07-29T04:34:21.140Z,18.30
2022-07-29T04:36:49.167Z,18.70
2022-07-29T04:39:22.916Z,19.10
2022-07-29T04:41:52.591Z,19.60
2022-07-29T04:44:28.392Z,20.00
2022-07-29T04:46:58.570Z,20.30
2022-07-29T04:49:27.052Z,20.80
2022-07-29T04:51:55.291Z,21.30
2022-07-29T04:54:24.806Z,22.10
2022-07-29T04:56:53.567Z,23.10
2022-07-29T04:59:22.147Z,23.90
2022-07-29T05:01:50.119Z,24.80
2022-07-29T05:04:18.663Z,25.50
2022-07-29T05:06:46.954Z,26.40
2022-07-29T05:09:14.838Z,27.10
2022-07-29T05:11:44.073Z,27.40
2022-07-29T05:14:11.941Z,28.10
2022-07-29T05:16:41.007Z,28.00
2022-07-29T05:19:13.979Z,27.60
2022-07-29T05:21:42.770Z,28.20
2022-07-29T05:24:10.678Z,28.20
2022-07-29T05:26:38.554Z,27.40
2022-07-29T05:29:07.811Z,26.60
2022-07-29T05:31:55.779Z,25.90
2022-07-29T05:34:23.728Z,25.30
2022-07-29T05:36:51.939Z,24.80
2022-07-29T05:39:20.140Z,24.60
2022-07-29T05:41:51.854Z,24.80
2022-07-29T05:44:21.432Z,25.10
2022-07-29T05:46:53.108Z,25.90
2022-07-29T05:49:27.305Z,27.20
2022-07-29T05:51:55.501Z,29.10
2022-07-29T05:54:23.414Z,29.70
2022-07-29T05:56:51.259Z,31.00
2022-07-29T05:59:19.205Z,32.00
2022-07-29T06:01:48.544Z,31.90
2022-07-29T06:04:16.858Z,32.50
2022-07-29T06:06:45.023Z,32.00
2022-07-29T06:09:14.286Z,32.70
2022-07-29T06:11:42.513Z,33.60
2022-07-29T06:14:10.525Z,33.40
2022-07-29T06:16:38.559Z,34.00
2022-07-29T06:19:07.893Z,34.00
2022-07-29T06:21:38.682Z,34.00
2022-07-29T06:24:10.216Z,34.20
2022-07-29T06:26:40.026Z,34.50
2022-07-29T06:29:08.573Z,36.00
2022-07-29T06:31:36.896Z,36.50
2022-07-29T06:34:04.977Z,36.10
2022-07-29T06:36:37.723Z,35.90
2022-07-29T06:39:07.736Z,37.30
2022-07-29T06:41:36.525Z,35.80
2022-07-29T06:44:10.833Z,35.20
2022-07-29T06:46:38.827Z,35.60
2022-07-29T06:49:06.886Z,36.00
2022-07-29T06:51:36.286Z,35.10
2022-07-29T06:54:06.525Z,34.40
2022-07-29T06:56:38.521Z,34.70
2022-07-29T06:59:08.857Z,35.20
2022-07-29T07:01:37.613Z,35.50
2022-07-29T07:04:05.747Z,35.60
2022-07-29T07:06:33.811Z,35.80
2022-07-29T07:09:03.174Z,36.20
2022-07-29T07:11:31.536Z,36.90
2022-07-29T07:14:03.589Z,37.60
2022-07-29T07:16:32.939Z,37.70
2022-07-29T07:19:01.447Z,38.40
2022-07-29T07:21:30.452Z,38.60
2022-07-29T07:23:59.061Z,38.10
2022-07-29T07:26:28.607Z,38.40
2022-07-29T07:28:56.541Z,38.70
2022-07-29T07:31:24.544Z,39.20
2022-07-29T07:33:53.041Z,38.60
2022-07-29T07:36:21.075Z,38.60
2022-07-29T07:38:48.965Z,39.20
2022-07-29T07:41:16.915Z,38.90
2022-07-29T07:43:46.197Z,39.30
2022-07-29T07:46:14.207Z,39.20
2022-07-29T07:48:42.130Z,40.30
2022-07-29T07:51:10.123Z,41.20
2022-07-29T07:53:38.091Z,40.80
2022-07-29T07:56:10.801Z,39.70
2022-07-29T07:58:39.702Z,40.70
2022-07-29T08:01:09.478Z,39.60
2022-07-29T08:03:37.628Z,40.50
2022-07-29T08:06:05.848Z,40.10
2022-07-29T08:08:35.022Z,40.20
2022-07-29T08:11:09.026Z,39.50
2022-07-29T08:13:38.657Z,40.30
2022-07-29T08:16:13.862Z,40.30
2022-07-29T08:18:45.048Z,39.80
2022-07-29T08:21:14.864Z,39.10
2022-07-29T08:23:50.570Z,39.80
2022-07-29T08:26:23.436Z,39.30
2022-07-29T08:28:51.843Z,39.40
2022-07-29T08:31:19.864Z,40.50
2022-07-29T08:33:49.160Z,40.70
2022-07-29T08:36:17.014Z,40.40
2022-07-29T08:38:44.911Z,40.70
2022-07-29T08:41:12.882Z,40.70
2022-07-29T08:43:42.944Z,41.00
2022-07-29T08:46:10.989Z,41.40
2022-07-29T08:48:40.464Z,41.70
2022-07-29T08:51:10.441Z,40.00
2022-07-29T08:53:39.020Z,40.00
2022-07-29T08:56:07.755Z,41.00
2022-07-29T08:58:36.933Z,42.90
2022-07-29T09:01:07.666Z,41.80
2022-07-29T09:03:42.396Z,41.20
2022-07-29T09:06:15.389Z,40.50
2022-07-29T09:08:44.057Z,38.10
2022-07-29T09:11:12.527Z,37.80
2022-07-29T09:13:40.469Z,38.10
2022-07-29T09:16:09.706Z,37.70
2022-07-29T09:18:39.152Z,37.90
2022-07-29T09:21:25.542Z,38.00
2022-07-29T09:24:12.391Z,36.70
2022-07-29T09:26:42.498Z,36.60
2022-07-29T09:29:12.233Z,38.10
2022-07-29T09:31:43.079Z,38.80
2022-07-29T09:34:12.845Z,38.60
2022-07-29T09:36:42.359Z,39.60
2022-07-29T09:39:12.058Z,39.80
2022-07-29T09:41:48.031Z,40.50
2022-07-29T09:44:16.722Z,42.10
2022-07-29T09:46:59.042Z,42.00
2022-07-29T09:49:27.605Z,40.50
2022-07-29T09:52:05.189Z,38.30
2022-07-29T09:54:37.796Z,36.60
2022-07-29T09:57:06.464Z,35.20
2022-07-29T09:59:35.100Z,33.30
2022-07-29T10:02:03.252Z,32.50
2022-07-29T10:04:41.323Z,31.60
2022-07-29T10:07:09.508Z,31.50
2022-07-29T10:09:38.836Z,31.40
2022-07-29T10:12:09.997Z,31.30
2022-07-29T10:14:38.710Z,30.80
2022-07-29T10:17:08.223Z,30.60
2022-07-29T10:19:37.221Z,30.40
2022-07-29T10:22:07.495Z,30.00
2022-07-29T10:24:42.854Z,29.60
2022-07-29T10:27:11.533Z,29.40
2022-07-29T10:29:42.912Z,29.10
2022-07-29T10:32:32.162Z,29.30
2022-07-29T10:35:22.992Z,29.10
2022-07-29T10:38:17.478Z,29.20
2022-07-29T10:41:12.680Z,28.50
2022-07-29T10:43:51.428Z,28.20
2022-07-29T10:46:20.719Z,28.00
2022-07-29T10:49:11.238Z,27.50
2022-07-29T10:51:58.388Z,27.30
2022-07-29T10:54:48.310Z,27.30
2022-07-29T10:57:21.502Z,28.10
2022-07-29T11:00:32.610Z,30.80
2022-07-29T11:03:04.565Z,33.10
2022-07-29T11:05:59.920Z,34.40
2022-07-29T11:08:28.939Z,34.70
2022-07-29T11:11:37.701Z,36.10
2022-07-29T11:14:10.418Z,37.10
2022-07-29T11:17:01.605Z,38.40
2022-07-29T11:19:30.565Z,37.80
2022-07-29T11:21:59.760Z,39.10
2022-07-29T11:24:29.988Z,40.30
2022-07-29T11:27:13.343Z,41.00
2022-07-29T11:29:51.238Z,40.60
2022-07-29T11:32:23.406Z,40.10
2022-07-29T11:35:17.008Z,39.00
2022-07-29T11:37:51.368Z,38.50
2022-07-29T11:40:23.914Z,36.90
2022-07-29T11:42:52.676Z,36.30
2022-07-29T11:45:42.624Z,35.10
2022-07-29T11:48:28.353Z,35.30
2022-07-29T11:50:59.910Z,35.30
2022-07-29T11:53:28.922Z,35.20
2022-07-29T11:56:01.457Z,34.40
2022-07-29T11:58:31.166Z,33.60
2022-07-29T12:01:04.455Z,34.20
2022-07-29T12:03:36.145Z,33.10
2022-07-29T12:06:14.051Z,32.60
2022-07-29T12:08:44.760Z,31.90
2022-07-29T12:11:21.809Z,31.40
2022-07-29T12:13:50.607Z,31.60
2022-07-29T12:16:27.744Z,32.50
2022-07-29T12:19:02.950Z,32.50
2022-07-29T12:21:31.530Z,32.10
2022-07-29T12:24:09.397Z,31.60
2022-07-29T12:26:50.582Z,31.50
2022-07-29T12:29:20.083Z,31.70
2022-07-29T12:32:04.891Z,31.60
2022-07-29T12:34:33.536Z,31.60
2022-07-29T12:37:02.434Z,31.60
2022-07-29T12:39:30.526Z,31.50
2022-07-29T12:42:04.206Z,31.50
2022-07-29T12:44:46.348Z,31.50
2022-07-29T12:47:15.774Z,31.60
2022-07-29T12:49:44.727Z,31.50
2022-07-29T12:52:29.695Z,31.50
2022-07-29T12:54:57.971Z,31.30
2022-07-29T12:57:25.982Z,31.20
2022-07-29T13:00:10.201Z,31.20
2022-07-29T13:02:40.598Z,31.10
2022-07-29T13:05:10.399Z,31.00
2022-07-29T13:07:55.740Z,30.80
2022-07-29T13:10:25.822Z,30.90
2022-07-29T13:13:16.115Z,31.00
2022-07-29T13:15:45.798Z,30.90
2022-07-29T13:18:31.508Z,30.50
2022-07-29T13:21:11.990Z,30.10
2022-07-29T13:23:40.351Z,29.90
2022-07-29T13:26:08.815Z,29.70
2022-07-29T13:28:36.927Z,29.20
2022-07-29T13:31:05.623Z,29.00
2022-07-29T13:33:34.947Z,28.80
2022-07-29T13:36:03.024Z,28.50
2022-07-29T13:38:31.433Z,28.20
2022-07-29T13:40:59.726Z,28.10
2022-07-29T13:43:27.698Z,27.90
2022-07-29T13:45:55.709Z,27.80
2022-07-29T13:48:23.614Z,27.70
2022-07-29T13:50:52.869Z,27.60
2022-07-29T13:53:27.261Z,27.50
2022-07-29T13:55:55.808Z,27.50
2022-07-29T13:58:23.726Z,27.50
2022-07-29T14:00:52.097Z,27.70
2022-07-29T14:03:20.455Z,27.80
2022-07-29T14:05:48.360Z,27.90
2022-07-29T14:08:17.671Z,28.20
2022-07-29T14:10:45.592Z,28.40
2022-07-29T14:13:25.376Z,28.70
2022-07-29T14:15:54.621Z,28.70
2022-07-29T14:18:22.621Z,28.80
2022-07-29T14:20:50.557Z,28.80
2022-07-29T14:23:20.314Z,29.00
2022-07-29T14:25:49.527Z,29.50
2022-07-29T14:28:17.780Z,29.90
2022-07-29T14:30:45.835Z,29.90
2022-07-29T14:33:13.749Z,29.70
2022-07-29T14:35:42.232Z,29.50
2022-07-29T14:38:10.311Z,29.40
2022-07-29T14:40:39.941Z,28.80
2022-07-29T14:43:07.818Z,28.40
2022-07-29T14:45:35.919Z,28.30
2022-07-29T14:48:03.848Z,28.00
2022-07-29T14:50:32.377Z,28.20
2022-07-29T14:53:00.474Z,28.40
2022-07-29T14:55:28.575Z,28.50
2022-07-29T14:58:07.792Z,28.50
2022-07-29T15:00:38.666Z,28.20
2022-07-29T15:03:06.737Z,27.90
2022-07-29T15:05:39.918Z,27.90
2022-07-29T15:08:09.036Z,27.80
2022-07-29T15:10:36.920Z,27.90
2022-07-29T15:13:06.263Z,28.00
2022-07-29T15:15:34.245Z,28.00
2022-07-29T15:18:02.116Z,27.90
2022-07-29T15:20:30.081Z,27.80
2022-07-29T15:22:58.539Z,27.30
2022-07-29T15:25:28.160Z,27.30
2022-07-29T15:28:00.782Z,27.20
2022-07-29T15:30:34.454Z,27.00
2022-07-29T15:33:03.905Z,26.80
2022-07-29T15:35:32.096Z,26.80
2022-07-29T15:38:00.073Z,26.80
2022-07-29T15:40:28.014Z,26.80
2022-07-29T15:42:56.206Z,26.90
2022-07-29T15:45:24.325Z,27.00
2022-07-29T15:47:53.609Z,26.90
2022-07-29T15:50:22.043Z,26.50
2022-07-29T15:52:49.976Z,26.40
2022-07-29T15:55:18.977Z,26.30
2022-07-29T15:57:47.025Z,26.10
2022-07-29T16:00:17.471Z,25.90
2022-07-29T16:02:45.525Z,25.80
2022-07-29T16:05:14.862Z,25.70
2022-07-29T16:07:42.988Z,25.50
2022-07-29T16:10:10.896Z,25.30
2022-07-29T16:12:38.870Z,25.10
2022-07-29T16:15:10.163Z,24.90
2022-07-29T16:17:38.853Z,24.80
2022-07-29T16:20:08.285Z,24.70
2022-07-29T16:22:37.605Z,24.60
2022-07-29T16:25:06.133Z,24.60
2022-07-29T16:27:37.972Z,24.50
2022-07-29T16:30:07.972Z,24.40
2022-07-29T16:32:35.978Z,24.30
2022-07-29T16:35:05.204Z,24.30
2022-07-29T16:37:35.338Z,24.20
2022-07-29T16:40:06.141Z,24.20
2022-07-29T16:42:46.732Z,24.10
2022-07-29T16:45:15.722Z,24.10
2022-07-29T16:47:43.845Z,24.00
2022-07-29T16:50:11.759Z,24.00
2022-07-29T16:52:39.969Z,24.00
2022-07-29T16:55:09.893Z,24.00
2022-07-29T16:57:37.765Z,23.90
2022-07-29T17:00:07.409Z,23.90
2022-07-29T17:02:35.307Z,23.90
2022-07-29T17:05:03.189Z,23.80
2022-07-29T17:07:31.097Z,23.80
2022-07-29T17:10:03.393Z,23.80
2022-07-29T17:12:33.324Z,23.60
2022-07-29T17:15:01.540Z,23.50
2022-07-29T17:17:38.618Z,23.30
2022-07-29T17:20:09.409Z,23.10
2022-07-29T17:22:37.811Z,22.90
2022-07-29T17:25:07.435Z,22.80
2022-07-29T17:27:37.117Z,22.90
2022-07-29T17:30:06.709Z,22.80
2022-07-29T17:32:38.464Z,22.70
2022-07-29T17:35:28.491Z,22.60
2022-07-29T17:37:56.961Z,22.50
2022-07-29T17:40:25.020Z,22.40
2022-07-29T17:42:54.202Z,22.20
2022-07-29T17:45:22.102Z,22.10
2022-07-29T17:47:49.988Z,21.90
2022-07-29T17:50:17.952Z,21.70
2022-07-29T17:52:45.906Z,21.60
2022-07-29T17:55:14.214Z,21.60
2022-07-29T17:57:42.115Z,21.50
2022-07-29T18:00:12.125Z,21.50
2022-07-29T18:02:40.072Z,21.40
2022-07-29T18:05:08.537Z,21.20
2022-07-29T18:07:36.472Z,21.10
2022-07-29T18:10:05.006Z,20.90
2022-07-29T18:12:32.888Z,20.70
2022-07-29T18:15:00.813Z,20.60
2022-07-29T18:17:48.459Z,20.50
2022-07-29T18:20:17.982Z,20.40
2022-07-29T18:22:45.847Z,20.40
2022-07-29T18:25:13.913Z,20.30
2022-07-29T18:27:41.898Z,20.30
2022-07-29T18:30:10.550Z,20.10
2022-07-29T18:32:39.742Z,20.10
2022-07-29T18:35:08.286Z,20.00
2022-07-29T18:38:00.702Z,20.00
2022-07-29T18:40:25.759Z,19.90
2022-07-29T18:42:54.097Z,19.80
2022-07-29T18:45:22.147Z,19.70
2022-07-29T18:47:57.997Z,19.70
2022-07-29T18:50:29.225Z,19.60
2022-07-29T18:52:58.698Z,19.40
2022-07-29T18:55:27.081Z,19.50
2022-07-29T18:57:57.151Z,19.40
2022-07-29T19:00:26.876Z,19.40
2022-07-29T19:02:54.898Z,19.30
2022-07-29T19:05:24.662Z,19.40
2022-07-29T19:07:54.721Z,19.20
2022-07-29T19:10:22.830Z,19.20
2022-07-29T19:12:50.730Z,19.10
2022-07-29T19:15:20.464Z,18.90
2022-07-29T19:17:48.996Z,18.90
2022-07-29T19:20:17.018Z,18.70
2022-07-29T19:22:46.564Z,18.70
2022-07-29T19:25:15.135Z,18.60
2022-07-29T19:27:43.151Z,18.60
2022-07-29T19:30:11.813Z,18.50
2022-07-29T19:32:39.810Z,18.40
2022-07-29T19:35:28.298Z,18.30
2022-07-29T19:37:59.013Z,18.30
2022-07-29T19:40:27.789Z,18.20
2022-07-29T19:42:56.449Z,18.20
2022-07-29T19:45:25.696Z,18.10
2022-07-29T19:47:57.712Z,18.00
2022-07-29T19:50:28.785Z,18.00
2022-07-29T19:52:58.338Z,17.80
2022-07-29T19:55:26.237Z,17.80
2022-07-29T19:57:54.256Z,17.80
2022-07-29T20:00:23.775Z,17.70
2022-07-29T20:02:52.113Z,17.70
2022-07-29T20:05:20.098Z,17.60
2022-07-29T20:07:48.120Z,17.60
2022-07-29T20:10:17.385Z,17.60
2022-07-29T20:12:45.487Z,17.50
2022-07-29T20:15:17.474Z,17.40
2022-07-29T20:17:45.429Z,17.30
2022-07-29T20:20:13.743Z,17.40
2022-07-29T20:22:44.488Z,17.40
2022-07-29T20:25:13.586Z,17.40
2022-07-29T20:27:43.009Z,17.40
2022-07-29T20:30:13.353Z,17.30
2022-07-29T20:32:42.303Z,17.30
2022-07-29T20:35:11.989Z,17.10
2022-07-29T20:37:52.246Z,17.10
2022-07-29T20:40:24.157Z,17.20
2022-07-29T20:42:53.517Z,17.10
2022-07-29T20:45:21.650Z,17.10
2022-07-29T20:47:50.656Z,17.00
2022-07-29T20:50:19.034Z,17.00
2022-07-29T20:52:47.077Z,17.00
2022-07-29T20:55:15.896Z,17.00
2022-07-29T20:57:44.064Z,17.00
2022-07-29T21:00:14.685Z,17.00
2022-07-29T21:02:42.786Z,17.00
2022-07-29T21:05:11.109Z,17.00
2022-07-29T21:07:39.037Z,16.90
2022-07-29T21:10:07.828Z,16.90
2022-07-29T21:12:35.811Z,16.80
2022-07-29T21:15:06.177Z,16.80
2022-07-29T21:17:37.557Z,16.80
2022-07-29T21:20:06.719Z,16.80
2022-07-29T21:22:34.582Z,16.80
2022-07-29T21:25:02.947Z,16.80
2022-07-29T21:27:48.249Z,16.80
2022-07-29T21:30:16.165Z,16.80
2022-07-29T21:32:45.437Z,16.70
2022-07-29T21:35:31.396Z,16.70
2022-07-29T21:38:01.426Z,16.70
2022-07-29T21:40:30.361Z,16.70
2022-07-29T21:42:58.244Z,16.70
2022-07-29T21:45:26.306Z,16.70
2022-07-29T21:47:55.507Z,16.70
2022-07-29T21:50:23.410Z,16.60
2022-07-29T21:52:51.313Z,16.60
2022-07-29T21:55:19.263Z,16.60
2022-07-29T21:57:47.366Z,16.60
2022-07-29T22:00:16.204Z,16.70
2022-07-29T22:02:44.365Z,16.70
2022-07-29T22:05:14.297Z,16.70
2022-07-29T22:07:54.250Z,16.60
2022-07-29T22:10:25.667Z,16.60
2022-07-29T22:12:54.830Z,16.50
2022-07-29T22:15:23.075Z,16.60
2022-07-29T22:17:50.989Z,16.50
2022-07-29T22:20:21.333Z,16.50
2022-07-29T22:22:49.546Z,16.50
2022-07-29T22:25:17.749Z,16.60
2022-07-29T22:27:45.888Z,16.50
2022-07-29T22:30:14.347Z,16.50
2022-07-29T22:32:42.469Z,16.50
2022-07-29T22:35:10.536Z,16.40
2022-07-29T22:37:40.082Z,16.40
2022-07-29T22:40:09.159Z,16.40
2022-07-29T22:42:40.776Z,16.30
2022-07-29T22:45:10.423Z,16.30
2022-07-29T22:47:46.223Z,16.30
2022-07-29T22:50:16.980Z,16.30
2022-07-29T22:52:46.887Z,16.40
2022-07-29T22:55:15.011Z,16.40
2022-07-29T22:57:43.336Z,16.40
2022-07-29T23:00:12.545Z,16.50
2022-07-29T23:02:41.422Z,16.50
2022-07-29T23:05:10.499Z,16.40
2022-07-29T23:07:38.716Z,16.50
2022-07-29T23:10:10.084Z,16.40
2022-07-29T23:12:37.992Z,16.40
2022-07-29T23:15:06.711Z,16.30
2022-07-29T23:17:36.505Z,16.40
2022-07-29T23:20:07.549Z,16.40
2022-07-29T23:22:35.974Z,16.30
2022-07-29T23:25:04.895Z,16.30
2022-07-29T23:27:34.292Z,16.30
2022-07-29T23:30:02.649Z,16.30
2022-07-29T23:32:30.628Z,16.30
2022-07-29T23:34:58.516Z,16.30
2022-07-29T23:37:26.887Z,16.40
2022-07-29T23:39:55.385Z,16.40
2022-07-29T23:42:23.294Z,16.40
2022-07-29T23:44:52.574Z,16.40
2022-07-29T23:47:20.447Z,16.40
2022-07-29T23:49:50.099Z,16.50
2022-07-29T23:52:18.385Z,16.50
2022-07-29T23:54:46.259Z,16.50
2022-07-29T23:57:14.156Z,16.50
2022-07-29T23:59:42.148Z,16.50
